Terminal Aerodrome Forecast
Issued by NWS

Current Version | Previous Version | Text Only | Print | Product List | Glossary On
Versions: 1 2 3 4 5 6 7 8 9 10 11 12 13 14 15 16
000
FTUS42 KMLB 230539
TAFISM
TAF
KISM 230539Z 2306/2406 14004KT P6SM FEW010 SCT250
      TEMPO 2309/2312 BKN010
     FM231400 15008KT P6SM SCT030
     FM231800 12010KT P6SM SCT050
     FM240000 12007KT P6SM SCT060 SCT090 SCT250=

USA.gov is the U.S. government's official web portal to all federal, state and local government web resources and services.